x

Fred Howard Park, Fl (fhpf1) Weather Station

9:54am - Tue 21st Nov 2017 All times are EST. -5 hours from GMT.

  • Wind
    9mph, 11mph gusts
  • Air Temp 71°f
  • Sea Pressure 1017.5mb
  • Fred Howard Park, Fl
  • Fred Howard Park, Fl

More Historic Weather Station data

Upgrade to MSW Pro to gain access to the past 30 days of data for over 8000 Wavebouys and Weather Stations around the globe.

Join

Comparision Forecast

View Surf forecast
   
Tue 11/21 9:54am 9 11 mph 1017.5mb 71f
9:48am 9 11 mph 1017.5mb 70f
8:54am 7 9 mph 1017.4mb 68f
8:48am 9 13 mph 1017.3mb 68f
7:54am 6 8 mph 1017.4mb 66f
7:48am 7 8 mph 1017.4mb 67f
6:54am 10 13 mph 1016.7mb 66f
6:48am 9 11 mph 1016.8mb 66f
5:54am 10 13 mph 1016.3mb 66f
5:48am 10 14 mph 1016.4mb 66f
4:54am 11 15 mph 1016.4mb 62f
4:48am 13 15 mph 1016.2mb 67f
3:54am 11 15 mph 1016.8mb 68f
3:48am 11 17 mph 1017mb 67f
2:54am 11 14 mph 1017.6mb 61f
2:48am 10 13 mph 1017.5mb 67f
1:54am 10 13 mph 1017.9mb 65f
1:48am 9 13 mph 1018.2mb 65f
12:54am 9 11 mph 1018.8mb 66f
Mon 11/20 11:54pm 10 15 mph 1018.9mb 67f
11:48pm 10 14 mph 1018.8mb 67f
10:54pm 14 20 mph 1019mb 68f
10:48pm 14 17 mph 1019mb 68f
9:54pm 13 16 mph 1019.1mb 68f
9:48pm 14 17 mph 1019.1mb 69f
8:54pm 13 17 mph 1019.1mb 69f
8:48pm 13 17 mph 1019.1mb 66f
7:54pm 13 17 mph 1019.1mb 70f
7:48pm 13 16 mph 1019.1mb 71f
6:54pm 10 13 mph 1019mb 72f
6:48pm 10 13 mph 1018.9mb 72f
5:54pm 7 8 mph 1018.5mb 75f
5:48pm 7 8 mph 1018.5mb 73f
4:54pm 9 13 mph 1018.4mb -
4:48pm 7 10 mph 1018.4mb -
3:54pm 9 13 mph 1018.2mb -
3:48pm 10 11 mph 1018.2mb 64f
2:54pm 10 14 mph 1018.3mb 61f
2:48pm 10 16 mph 1018.3mb -
1:54pm 10 14 mph 1018.8mb 74f
1:48pm 11 17 mph 1018.8mb 74f
12:54pm 11 15 mph 1019.5mb 68f
12:48pm 11 15 mph 1019.5mb 71f
11:54am 9 13 mph 1020.6mb -
9:54am 7 8 mph 1021.6mb 58f
9:48am 9 11 mph 1021.6mb 57f
8:54am 10 15 mph 1021.5mb 54f
8:48am 10 15 mph 1021.5mb 56f
7:54am 13 17 mph 1020.9mb 56f
7:48am 11 15 mph 1020.9mb 62f
6:54am 10 14 mph 1020.3mb 62f
6:48am 10 14 mph 1020.2mb 62f
5:54am 13 15 mph 1020mb 53f
5:48am 13 18 mph 1020.1mb 53f
4:54am 17 22 mph 1019.4mb 54f
4:48am 17 23 mph 1019.3mb 54f
3:54am 15 18 mph 1019.6mb 55f
3:48am 14 20 mph 1019.5mb 55f
2:54am 14 18 mph 1019.5mb 56f
2:48am 16 21 mph 1019.4mb 56f
1:54am 14 18 mph 1019.4mb 57f
1:48am 15 20 mph 1019.3mb 58f
12:54am 15 20 mph 1019.4mb 59f
12:48am 14 20 mph 1019.4mb 60f
Sun 11/19 11:54pm 15 22 mph 1019.2mb 61f
11:48pm 16 20 mph 1019.1mb 62f
10:54pm 14 17 mph 1018.6mb 64f
10:48pm 14 17 mph 1018.6mb 64f
9:54pm 20 25 mph 1018mb 66f
9:48pm 20 28 mph 1017.8mb 66f
8:54pm 21 26 mph 1017mb 67f
8:48pm 23 28 mph 1016.8mb 64f
7:54pm 18 22 mph 1016.3mb 68f
7:48pm 20 22 mph 1016.2mb 67f
6:54pm 16 20 mph 1015.3mb 67f
6:48pm 16 18 mph 1015.2mb 67f
5:54pm 15 18 mph 1014.8mb 66f
5:48pm 16 17 mph 1014.8mb 66f
4:54pm 17 20 mph 1014.4mb 67f
4:48pm 16 20 mph 1014.4mb 67f
3:54pm 15 17 mph 1013.8mb 67f
3:48pm 16 18 mph 1013.8mb 68f
2:54pm 16 20 mph 1013.7mb 64f
2:48pm 16 20 mph 1013.7mb 67f
1:54pm 15 16 mph 1013.7mb 68f
1:48pm 15 17 mph 1013.8mb 68f
12:54pm 8 10 mph 1014.2mb 70f
12:48pm 7 9 mph 1014.3mb 70f
11:54am 7 9 mph 1015mb 70f
11:48am 9 11 mph 1015.1mb 70f
10:54am 10 10 mph 1014.9mb 73f
10:48am 9 10 mph 1014.9mb -
9:54am 10 11 mph 1014.8mb 73f
9:48am 10 11 mph 1014.8mb 73f
8:54am 10 10 mph 1014.6mb 72f
8:48am 9 10 mph 1014.5mb 74f
7:54am 9 10 mph 1014mb 71f
7:48am 9 10 mph 1014mb 72f
6:54am 5 5 mph 1014mb 69f
6:48am 5 6 mph 1014mb 70f
5:54am 7 7 mph 1014mb 70f
5:48am 7 7 mph 1013.9mb 70f
4:54am 7 8 mph 1013.6mb 70f
4:48am 9 10 mph 1013.4mb 70f
3:54am 8 9 mph 1013.8mb 70f
3:48am 7 8 mph 1013.9mb 70f
2:54am 6 7 mph 1014.2mb 70f
2:48am 5 6 mph 1014.3mb 71f
1:54am 6 6 mph 1014.7mb 71f
1:48am 6 7 mph 1014.7mb 71f
12:54am 7 8 mph 1015.3mb 71f
12:48am 7 8 mph 1015.3mb 71f
Sat 11/18 11:54pm 8 10 mph 1015.1mb 72f
11:48pm 8 9 mph 1015.2mb 71f
10:54pm 6 7 mph 1015.5mb 70f
10:48pm 6 7 mph 1015.4mb 70f
9:54pm 6 7 mph 1015.5mb -
9:48pm 6 7 mph 1015.4mb -
8:54pm 5 6 mph 1015.6mb -
8:48pm 6 6 mph 1015.6mb -
7:54pm 3 5 mph 1014.7mb 57f
7:48pm 3 5 mph 1015.5mb 52f
6:54pm 3 5 mph 1014.7mb -
6:48pm 5 5 mph 1015mb 73f
5:54pm 7 8 mph 1015.1mb -
5:48pm 7 8 mph 1015.2mb 66f
4:54pm 6 7 mph 1015mb 76f
4:48pm 7 7 mph 1015mb 72f
3:54pm 7 9 mph 1015mb 75f
3:48pm 7 8 mph 1014.9mb 73f